Terminal Aerodrome Forecast
Issued by NWS Amarillo, TX

Home | Current Version | Previous Version | Text Only | Print | Product List | Glossary On
Versions: 1 2 3 4 5 6 7 8 9 10 11 12 13 14 15 16 17 18
000
FTUS44 KAMA 210500 AAA
TAFGUY
TAF AMD
KGUY 210525Z 2105/2206 14010KT P6SM SCT005
      TEMPO 2106/2110 BKN005
     FM211100 34014KT P6SM SCT060
     FM211400 01017G27KT P6SM SCT080
     FM212000 03012KT P6SM BKN200
     FM220100 06006KT P6SM SCT200=

USA.gov is the U.S. government's official web portal to all federal, state and local government web resources and services.